CES519 ZGGG-ZUUU
Flight info
| Callsign | CES519 |
|---|---|
| Flight time | N/A |
| Altitude | 40100 |
| Route | AGVIL W24 OSNOV G586 QP B330 ELKAL W179 IGNAK |
| Aircraft | A359/H-SDE2E3GHIJ3J4J5LM1ORWXY/LB1D1 |
Departure
| Time | 2026-04-29 13:55 |
|---|---|
| Airport | Guangzhou Baiyun International Airport (ZGGG) |
Arrival
| Time | N/A |
|---|---|
| Airport | Chengdu Shuangliu International Airport (ZUUU) |
| Time | Latitude | Longitude | Altitude | Speed | Heading |
|---|---|---|---|---|---|
| 2026-04-29 13:38 | 23.38968 | 113.29199 | 65 ft | 0 kts | 66° |
| 2026-04-29 13:47 | 23.38965 | 113.29192 | 55 ft | 3 kts | 66° |
| 2026-04-29 13:47 | 23.38958 | 113.29174 | 55 ft | 3 kts | 66° |
| 2026-04-29 13:48 | 23.38951 | 113.29155 | 55 ft | 3 kts | 66° |
| 2026-04-29 13:48 | 23.38943 | 113.29137 | 55 ft | 3 kts | 66° |
| 2026-04-29 13:48 | 23.38938 | 113.29116 | 56 ft | 3 kts | 86° |
| 2026-04-29 13:48 | 23.38939 | 113.29095 | 58 ft | 3 kts | 108° |
| 2026-04-29 13:49 | 23.38947 | 113.29076 | 58 ft | 3 kts | 128° |
| 2026-04-29 13:49 | 23.38961 | 113.29061 | 56 ft | 3 kts | 149° |
| 2026-04-29 13:49 | 23.38978 | 113.29053 | 56 ft | 3 kts | 169° |
| 2026-04-29 13:49 | 23.38981 | 113.29052 | 56 ft | 0 kts | 173° |
| 2026-04-29 13:51 | 23.38980 | 113.29052 | 56 ft | 0 kts | 172° |
| 2026-04-29 13:51 | 23.38970 | 113.29055 | 56 ft | 4 kts | 168° |
| 2026-04-29 13:51 | 23.38918 | 113.29050 | 57 ft | 10 kts | 201° |
| 2026-04-29 13:51 | 23.38897 | 113.28974 | 59 ft | 14 kts | 276° |
| 2026-04-29 13:52 | 23.38876 | 113.28872 | 59 ft | 16 kts | 214° |
| 2026-04-29 13:52 | 23.38771 | 113.28831 | 58 ft | 18 kts | 196° |
| 2026-04-29 13:52 | 23.38642 | 113.28801 | 58 ft | 21 kts | 192° |
| 2026-04-29 13:52 | 23.38491 | 113.28760 | 57 ft | 24 kts | 193° |
| 2026-04-29 13:53 | 23.38317 | 113.28714 | 59 ft | 27 kts | 193° |
| 2026-04-29 13:53 | 23.38123 | 113.28662 | 62 ft | 30 kts | 193° |
| 2026-04-29 13:53 | 23.37913 | 113.28604 | 61 ft | 32 kts | 194° |
| 2026-04-29 13:53 | 23.37726 | 113.28553 | 56 ft | 19 kts | 194° |
| 2026-04-29 13:54 | 23.37677 | 113.28486 | 59 ft | 10 kts | 279° |
| 2026-04-29 13:54 | 23.37696 | 113.28403 | 58 ft | 13 kts | 293° |
| 2026-04-29 13:54 | 23.37770 | 113.28373 | 56 ft | 11 kts | 12° |
| 2026-04-29 13:54 | 23.37882 | 113.28405 | 58 ft | 35 kts | 14° |
| 2026-04-29 13:55 | 23.38384 | 113.28539 | 59 ft | 111 kts | 14° |
| 2026-04-29 13:55 | 23.39340 | 113.28797 | 152 ft | 164 kts | 13° |
| 2026-04-29 13:55 | 23.40380 | 113.29084 | 1098 ft | 148 kts | 14° |
| 2026-04-29 13:55 | 23.41424 | 113.29341 | 1701 ft | 166 kts | 12° |
| 2026-04-29 13:56 | 23.42659 | 113.29103 | 2128 ft | 193 kts | 347° |
| 2026-04-29 13:56 | 23.43996 | 113.28652 | 2692 ft | 211 kts | 348° |
| 2026-04-29 13:56 | 23.45450 | 113.28227 | 3434 ft | 221 kts | 348° |
| 2026-04-29 13:56 | 23.46979 | 113.27822 | 4186 ft | 230 kts | 348° |
| 2026-04-29 13:57 | 23.48569 | 113.27426 | 4938 ft | 239 kts | 347° |
| 2026-04-29 13:57 | 23.50233 | 113.27022 | 5665 ft | 249 kts | 346° |
| 2026-04-29 13:57 | 23.51935 | 113.26615 | 6568 ft | 252 kts | 345° |
| 2026-04-29 13:57 | 23.53657 | 113.26204 | 7412 ft | 258 kts | 344° |
| 2026-04-29 13:58 | 23.55426 | 113.25680 | 8040 ft | 274 kts | 340° |
| 2026-04-29 13:58 | 23.57278 | 113.25064 | 8892 ft | 281 kts | 340° |
| 2026-04-29 13:58 | 23.59060 | 113.24204 | 9826 ft | 280 kts | 323° |
| 2026-04-29 13:58 | 23.60509 | 113.22773 | 10557 ft | 288 kts | 310° |
| 2026-04-29 13:59 | 23.61887 | 113.21065 | 10923 ft | 311 kts | 308° |
| 2026-04-29 13:59 | 23.63345 | 113.19213 | 11247 ft | 332 kts | 308° |
| 2026-04-29 13:59 | 23.64894 | 113.17270 | 11741 ft | 345 kts | 309° |
| 2026-04-29 13:59 | 23.66490 | 113.15290 | 12453 ft | 349 kts | 309° |
| 2026-04-29 14:00 | 23.68106 | 113.13296 | 13206 ft | 353 kts | 309° |
| 2026-04-29 14:00 | 23.69735 | 113.11280 | 13940 ft | 356 kts | 308° |
| 2026-04-29 14:00 | 23.71377 | 113.09249 | 14597 ft | 358 kts | 308° |
| 2026-04-29 14:00 | 23.72972 | 113.07145 | 15209 ft | 360 kts | 302° |
| 2026-04-29 14:01 | 23.74276 | 113.04810 | 15834 ft | 362 kts | 296° |
| 2026-04-29 14:01 | 23.75486 | 113.02395 | 16457 ft | 364 kts | 296° |
| 2026-04-29 14:01 | 23.76730 | 113.00182 | 17034 ft | 370 kts | 303° |
| 2026-04-29 14:01 | 23.78576 | 112.98184 | 17605 ft | 381 kts | 321° |
| 2026-04-29 14:02 | 23.80951 | 112.96885 | 18220 ft | 392 kts | 336° |
| 2026-04-29 14:02 | 23.83576 | 112.95982 | 18751 ft | 398 kts | 339° |
| 2026-04-29 14:02 | 23.86242 | 112.95131 | 19280 ft | 401 kts | 339° |
| 2026-04-29 14:02 | 23.88930 | 112.94265 | 19831 ft | 404 kts | 338° |
| 2026-04-29 14:03 | 23.91637 | 112.93387 | 20380 ft | 407 kts | 338° |
| 2026-04-29 14:03 | 23.94358 | 112.92492 | 20941 ft | 409 kts | 338° |
| 2026-04-29 14:03 | 23.97090 | 112.91586 | 21506 ft | 412 kts | 338° |
| 2026-04-29 14:03 | 23.99844 | 112.90671 | 22062 ft | 415 kts | 338° |
| 2026-04-29 14:04 | 24.02617 | 112.89750 | 22617 ft | 418 kts | 338° |
| 2026-04-29 14:04 | 24.05415 | 112.88820 | 23178 ft | 421 kts | 338° |
| 2026-04-29 14:04 | 24.08231 | 112.87883 | 23717 ft | 424 kts | 338° |
| 2026-04-29 14:04 | 24.11070 | 112.86939 | 24172 ft | 427 kts | 338° |
| 2026-04-29 14:05 | 24.13924 | 112.85989 | 24639 ft | 431 kts | 338° |
| 2026-04-29 14:05 | 24.16797 | 112.85037 | 25137 ft | 434 kts | 338° |
| 2026-04-29 14:05 | 24.19705 | 112.84076 | 25630 ft | 437 kts | 338° |
| 2026-04-29 14:05 | 24.22619 | 112.83107 | 26149 ft | 440 kts | 337° |
| 2026-04-29 14:06 | 24.25558 | 112.82126 | 26672 ft | 443 kts | 337° |
| 2026-04-29 14:06 | 24.28514 | 112.81140 | 27217 ft | 445 kts | 337° |
| 2026-04-29 14:06 | 24.31451 | 112.80160 | 27725 ft | 448 kts | 337° |
| 2026-04-29 14:06 | 24.34486 | 112.79148 | 28207 ft | 452 kts | 337° |
| 2026-04-29 14:07 | 24.37508 | 112.78128 | 28694 ft | 455 kts | 336° |
| 2026-04-29 14:07 | 24.40433 | 112.76842 | 29204 ft | 452 kts | 328° |
| 2026-04-29 14:07 | 24.43136 | 112.75122 | 29686 ft | 448 kts | 319° |
| 2026-04-29 14:07 | 24.45505 | 112.72999 | 30177 ft | 444 kts | 310° |
| 2026-04-29 14:08 | 24.47531 | 112.70472 | 30578 ft | 440 kts | 302° |
| 2026-04-29 14:08 | 24.49138 | 112.67624 | 30955 ft | 438 kts | 293° |
| 2026-04-29 14:08 | 24.50288 | 112.64534 | 31324 ft | 437 kts | 284° |
| 2026-04-29 14:08 | 24.50960 | 112.61282 | 31703 ft | 437 kts | 276° |
| 2026-04-29 14:09 | 24.51141 | 112.57955 | 32082 ft | 438 kts | 267° |
| 2026-04-29 14:09 | 24.51157 | 112.54604 | 32443 ft | 441 kts | 271° |
| 2026-04-29 14:09 | 24.51378 | 112.51241 | 32800 ft | 443 kts | 273° |
| 2026-04-29 14:09 | 24.51637 | 112.47859 | 33138 ft | 446 kts | 273° |
| 2026-04-29 14:10 | 24.51924 | 112.44460 | 33454 ft | 448 kts | 274° |
| 2026-04-29 14:10 | 24.52235 | 112.41051 | 33864 ft | 448 kts | 274° |
| 2026-04-29 14:10 | 24.52568 | 112.37657 | 34321 ft | 447 kts | 275° |
| 2026-04-29 14:10 | 24.53121 | 112.34298 | 34735 ft | 447 kts | 281° |
| 2026-04-29 14:11 | 24.54038 | 112.31030 | 35141 ft | 449 kts | 287° |
| 2026-04-29 14:11 | 24.55291 | 112.27882 | 35535 ft | 450 kts | 291° |
| 2026-04-29 14:11 | 24.56670 | 112.24796 | 35946 ft | 450 kts | 292° |
| 2026-04-29 14:11 | 24.58107 | 112.21742 | 36349 ft | 449 kts | 293° |
| 2026-04-29 14:12 | 24.59563 | 112.18705 | 36678 ft | 450 kts | 293° |
| 2026-04-29 14:12 | 24.61024 | 112.15670 | 36977 ft | 450 kts | 293° |
| 2026-04-29 14:12 | 24.62475 | 112.12638 | 37380 ft | 447 kts | 293° |
| 2026-04-29 14:12 | 24.63913 | 112.09615 | 37822 ft | 445 kts | 292° |
| 2026-04-29 14:13 | 24.65338 | 112.06602 | 38227 ft | 443 kts | 292° |
| 2026-04-29 14:13 | 24.66750 | 112.03600 | 38588 ft | 442 kts | 292° |
| 2026-04-29 14:13 | 24.68158 | 112.00601 | 38900 ft | 441 kts | 292° |
| 2026-04-29 14:13 | 24.69512 | 111.97709 | 39170 ft | 440 kts | 292° |
| 2026-04-29 14:14 | 24.70843 | 111.94868 | 39425 ft | 440 kts | 292° |
| 2026-04-29 14:14 | 24.72242 | 111.91880 | 39686 ft | 439 kts | 292° |
| 2026-04-29 14:14 | 24.73639 | 111.88894 | 39941 ft | 439 kts | 292° |
| 2026-04-29 14:14 | 24.75033 | 111.85914 | 40161 ft | 439 kts | 292° |
| 2026-04-29 14:15 | 24.77822 | 111.79945 | 40235 ft | 438 kts | 292° |
| 2026-04-29 14:15 | 24.80608 | 111.73977 | 40237 ft | 438 kts | 292° |
| 2026-04-29 14:16 | 24.83388 | 111.68016 | 40240 ft | 437 kts | 292° |
| 2026-04-29 14:16 | 24.86164 | 111.62056 | 40241 ft | 437 kts | 292° |
| 2026-04-29 14:17 | 24.88935 | 111.56098 | 40244 ft | 437 kts | 292° |
| 2026-04-29 14:17 | 24.91702 | 111.50141 | 40247 ft | 437 kts | 292° |
| 2026-04-29 14:18 | 24.94465 | 111.44184 | 40250 ft | 436 kts | 292° |
| 2026-04-29 14:18 | 24.97221 | 111.38235 | 40253 ft | 436 kts | 292° |
| 2026-04-29 14:19 | 24.99977 | 111.32277 | 40252 ft | 436 kts | 292° |
| 2026-04-29 14:19 | 25.02728 | 111.26324 | 40255 ft | 436 kts | 292° |
| 2026-04-29 14:20 | 25.05474 | 111.20372 | 40254 ft | 435 kts | 292° |
| 2026-04-29 14:20 | 25.08215 | 111.14425 | 40256 ft | 435 kts | 292° |
| 2026-04-29 14:21 | 25.10956 | 111.08470 | 40257 ft | 435 kts | 292° |
| 2026-04-29 14:21 | 25.13687 | 111.02528 | 40254 ft | 434 kts | 292° |
| 2026-04-29 14:22 | 25.16399 | 110.96618 | 40261 ft | 434 kts | 292° |
| 2026-04-29 14:22 | 25.19127 | 110.90668 | 40256 ft | 434 kts | 292° |
| 2026-04-29 14:23 | 25.21850 | 110.84719 | 40252 ft | 434 kts | 292° |
| 2026-04-29 14:23 | 25.24578 | 110.78752 | 40260 ft | 434 kts | 292° |
| 2026-04-29 14:24 | 25.27297 | 110.72798 | 40258 ft | 434 kts | 292° |
| 2026-04-29 14:24 | 25.30012 | 110.66843 | 40256 ft | 434 kts | 292° |
| 2026-04-29 14:25 | 25.32722 | 110.60891 | 40251 ft | 433 kts | 292° |
| 2026-04-29 14:25 | 25.35427 | 110.54945 | 40250 ft | 433 kts | 292° |
| 2026-04-29 14:26 | 25.38126 | 110.49002 | 40253 ft | 433 kts | 292° |
| 2026-04-29 14:26 | 25.40823 | 110.43057 | 40255 ft | 432 kts | 292° |
| 2026-04-29 14:27 | 25.43514 | 110.37115 | 40258 ft | 432 kts | 292° |
| 2026-04-29 14:28 | 25.47544 | 110.28203 | 40256 ft | 431 kts | 291° |
| 2026-04-29 14:28 | 25.50226 | 110.22262 | 40258 ft | 431 kts | 291° |
| 2026-04-29 14:29 | 25.52884 | 110.16367 | 40261 ft | 431 kts | 291° |
| 2026-04-29 14:29 | 25.55560 | 110.10423 | 40260 ft | 431 kts | 291° |
| 2026-04-29 14:30 | 25.58232 | 110.04481 | 40260 ft | 431 kts | 291° |
| 2026-04-29 14:30 | 25.60901 | 109.98536 | 40262 ft | 431 kts | 291° |
| 2026-04-29 14:31 | 25.63570 | 109.92587 | 40263 ft | 431 kts | 291° |
| 2026-04-29 14:31 | 25.66238 | 109.86630 | 40257 ft | 431 kts | 291° |
| 2026-04-29 14:32 | 25.68901 | 109.80675 | 40262 ft | 431 kts | 291° |
| 2026-04-29 14:32 | 25.71110 | 109.75729 | 40261 ft | 431 kts | 291° |
| 2026-04-29 14:33 | 25.73768 | 109.69771 | 40263 ft | 431 kts | 291° |
| 2026-04-29 14:33 | 25.76841 | 109.62835 | 40263 ft | 430 kts | 290° |
| 2026-04-29 14:34 | 25.78545 | 109.57647 | 40264 ft | 426 kts | 284° |
| 2026-04-29 14:34 | 25.80254 | 109.51360 | 40266 ft | 426 kts | 283° |
| 2026-04-29 14:35 | 25.81900 | 109.45052 | 40266 ft | 425 kts | 283° |
| 2026-04-29 14:35 | 25.83544 | 109.38743 | 40270 ft | 425 kts | 283° |
| 2026-04-29 14:36 | 25.85186 | 109.32469 | 40280 ft | 425 kts | 283° |
| 2026-04-29 14:36 | 25.86840 | 109.26153 | 40279 ft | 426 kts | 283° |
| 2026-04-29 14:37 | 25.88493 | 109.19837 | 40284 ft | 426 kts | 283° |
| 2026-04-29 14:37 | 25.90143 | 109.13514 | 40286 ft | 426 kts | 283° |
| 2026-04-29 14:38 | 25.91790 | 109.07196 | 40287 ft | 426 kts | 283° |
| 2026-04-29 14:38 | 25.93450 | 109.00866 | 40290 ft | 427 kts | 284° |
| 2026-04-29 14:39 | 25.95137 | 108.94544 | 40297 ft | 427 kts | 284° |
| 2026-04-29 14:39 | 25.96821 | 108.88214 | 40295 ft | 427 kts | 284° |
| 2026-04-29 14:40 | 25.98499 | 108.81881 | 40303 ft | 427 kts | 284° |
| 2026-04-29 14:40 | 26.00165 | 108.75585 | 40305 ft | 427 kts | 284° |
| 2026-04-29 14:41 | 26.01855 | 108.69211 | 40303 ft | 427 kts | 284° |
| 2026-04-29 14:41 | 26.03527 | 108.62928 | 40303 ft | 427 kts | 284° |
| 2026-04-29 14:42 | 26.05208 | 108.56596 | 40306 ft | 427 kts | 284° |
| 2026-04-29 14:42 | 26.06884 | 108.50267 | 40307 ft | 426 kts | 284° |
| 2026-04-29 14:43 | 26.08558 | 108.43937 | 40309 ft | 427 kts | 284° |
| 2026-04-29 14:43 | 26.09441 | 108.40771 | 41079 ft | 433 kts | 289° |
| 2026-04-29 14:43 | 26.10606 | 108.37642 | 40883 ft | 443 kts | 294° |
| 2026-04-29 14:43 | 26.11912 | 108.34485 | 40627 ft | 455 kts | 295° |
| 2026-04-29 14:44 | 26.13292 | 108.31261 | 40367 ft | 468 kts | 295° |
| 2026-04-29 14:44 | 26.14728 | 108.27960 | 40136 ft | 479 kts | 295° |
| 2026-04-29 14:44 | 26.16196 | 108.24600 | 40093 ft | 486 kts | 295° |
| 2026-04-29 14:45 | 26.19174 | 108.17762 | 40098 ft | 493 kts | 295° |
| 2026-04-29 14:45 | 26.22151 | 108.10880 | 40100 ft | 493 kts | 295° |
| 2026-04-29 14:46 | 26.25114 | 108.04001 | 40100 ft | 493 kts | 295° |
| 2026-04-29 14:46 | 26.28055 | 107.97160 | 40100 ft | 493 kts | 295° |
| 2026-04-29 14:47 | 26.31010 | 107.90275 | 40100 ft | 493 kts | 295° |